createdAt,value
2018-03-17T00:00:07.544Z,9.55
2018-03-17T00:01:17.356Z,9.42
2018-03-17T00:02:27.175Z,9.53
2018-03-17T00:03:37.309Z,9.44
2018-03-17T00:04:47.122Z,9.42
2018-03-17T00:05:57.200Z,9.39
2018-03-17T00:07:07.045Z,9.3
2018-03-17T00:08:16.859Z,9.44
2018-03-17T00:09:26.953Z,9.41
2018-03-17T00:10:37.052Z,9.42
2018-03-17T00:11:46.883Z,9.48
2018-03-17T00:12:56.936Z,9.34
2018-03-17T00:14:07.025Z,9.37
2018-03-17T00:15:17.101Z,9.34
2018-03-17T00:16:26.909Z,9.37
2018-03-17T00:17:36.740Z,9.38
2018-03-17T00:18:46.813Z,9.29
2018-03-17T00:19:56.878Z,9.37
2018-03-17T00:21:06.965Z,9.3
2018-03-17T00:22:17.047Z,9.23
2018-03-17T00:23:26.849Z,9.23
2018-03-17T00:24:36.938Z,9.23
2018-03-17T00:25:47.027Z,9.09
2018-03-17T00:26:56.814Z,9.17
2018-03-17T00:28:06.647Z,9.14
2018-03-17T00:29:16.718Z,9.19
2018-03-17T00:30:26.781Z,9.03
2018-03-17T00:31:36.065Z,9.11
2018-03-17T00:32:45.845Z,9.09
2018-03-17T00:33:55.904Z,9.08
2018-03-17T00:35:06.027Z,9.11
2018-03-17T00:36:16.133Z,8.98
2018-03-17T00:37:26.185Z,9.03
2018-03-17T00:38:35.980Z,8.95
2018-03-17T00:39:45.776Z,8.85
2018-03-17T00:40:55.622Z,8.89
2018-03-17T00:42:05.172Z,8.82
2018-03-17T00:43:15.246Z,8.76
2018-03-17T00:44:25.051Z,8.79
2018-03-17T00:45:35.133Z,8.74
2018-03-17T00:46:44.955Z,8.69
2018-03-17T00:47:54.492Z,8.68
2018-03-17T00:49:04.287Z,8.54
2018-03-17T00:50:14.342Z,8.53
2018-03-17T00:51:23.888Z,8.44
2018-03-17T00:52:33.491Z,8.44
2018-03-17T00:53:43.032Z,8.46
2018-03-17T00:54:52.856Z,8.46
2018-03-17T00:56:02.653Z,8.4
2018-03-17T00:57:12.430Z,8.5
2018-03-17T00:58:21.780Z,8.32
2018-03-17T00:59:31.843Z,8.42
2018-03-17T01:00:41.640Z,8.32
2018-03-17T01:01:51.716Z,8.28
2018-03-17T01:03:01.268Z,8.35
2018-03-17T01:04:11.055Z,8.26
2018-03-17T01:05:20.857Z,8.28
2018-03-17T01:06:30.392Z,8.22
2018-03-17T01:07:40.454Z,8.11
2018-03-17T01:08:50.269Z,8.19
2018-03-17T01:10:00.328Z,8.17
2018-03-17T01:11:10.123Z,8.09
2018-03-17T01:12:20.199Z,8.1
2018-03-17T01:13:29.990Z,8.1
2018-03-17T01:14:39.783Z,7.99
2018-03-17T01:15:49.846Z,8.04
2018-03-17T01:16:59.640Z,7.93
2018-03-17T01:18:09.174Z,7.95
2018-03-17T01:19:19.240Z,7.89
2018-03-17T01:20:29.298Z,7.93
2018-03-17T01:21:39.091Z,8.01
2018-03-17T01:22:48.879Z,7.85
2018-03-17T01:23:58.417Z,7.82
2018-03-17T01:25:08.462Z,7.78
2018-03-17T01:26:18.595Z,7.8
2018-03-17T01:27:28.121Z,7.7
2018-03-17T01:28:38.185Z,7.63
2018-03-17T01:29:48.253Z,7.59
2018-03-17T01:30:58.091Z,7.68
2018-03-17T01:32:07.634Z,7.68
2018-03-17T01:33:17.493Z,7.61
2018-03-17T01:34:27.288Z,7.63
2018-03-17T01:35:37.084Z,7.61
2018-03-17T01:36:46.902Z,7.63
2018-03-17T01:37:56.683Z,7.63
2018-03-17T01:39:06.755Z,7.63
2018-03-17T01:40:16.830Z,7.61
2018-03-17T01:41:26.092Z,7.58
2018-03-17T01:42:36.163Z,7.7
2018-03-17T01:43:45.962Z,7.54
2018-03-17T01:44:55.226Z,7.51
2018-03-17T01:46:04.774Z,7.51
2018-03-17T01:47:14.830Z,7.49
2018-03-17T01:48:24.902Z,7.52
2018-03-17T01:49:34.708Z,7.52
2018-03-17T01:50:44.753Z,7.58
2018-03-17T01:51:54.812Z,7.54
2018-03-17T01:53:04.865Z,7.48
2018-03-17T01:54:14.925Z,7.55
2018-03-17T01:55:24.979Z,7.52
2018-03-17T01:56:35.099Z,7.48
2018-03-17T01:57:45.335Z,7.49
2018-03-17T01:58:55.795Z,7.54
2018-03-17T02:00:05.606Z,7.47
2018-03-17T02:01:15.658Z,7.48
2018-03-17T02:02:25.510Z,7.51
2018-03-17T02:03:35.587Z,7.44
2018-03-17T02:04:45.387Z,7.37
2018-03-17T02:05:55.490Z,7.48
2018-03-17T02:07:05.563Z,7.37
2018-03-17T02:08:15.634Z,7.34
2018-03-17T02:09:25.415Z,7.39
2018-03-17T02:10:35.206Z,7.26
2018-03-17T02:11:45.264Z,7.29
2018-03-17T02:12:55.055Z,7.26
2018-03-17T02:14:04.589Z,7.23
2018-03-17T02:15:14.664Z,7.29
2018-03-17T02:16:24.728Z,7.18
2018-03-17T02:17:34.797Z,7.19
2018-03-17T02:18:44.859Z,7.26
2018-03-17T02:19:54.729Z,7.23
2018-03-17T02:21:04.007Z,7.16
2018-03-17T02:22:13.867Z,7.19
2018-03-17T02:23:23.557Z,7.21
2018-03-17T02:24:33.366Z,7.3
2018-03-17T02:25:43.478Z,7.26
2018-03-17T02:26:53.538Z,7.27
2018-03-17T02:28:03.317Z,7.31
2018-03-17T02:29:13.368Z,7.27
2018-03-17T02:30:23.440Z,7.36
2018-03-17T02:31:33.542Z,7.22
2018-03-17T02:32:43.356Z,7.23
2018-03-17T02:33:53.170Z,7.21
2018-03-17T02:35:02.989Z,7.23
2018-03-17T02:36:12.794Z,7.27
2018-03-17T02:37:22.882Z,7.26
2018-03-17T02:38:32.939Z,7.27
2018-03-17T02:39:42.986Z,7.26
2018-03-17T02:40:53.093Z,7.16
2018-03-17T02:42:03.160Z,7.22
2018-03-17T02:43:13.256Z,7.23
2018-03-17T02:44:23.324Z,7.13
2018-03-17T02:45:33.129Z,7.13
2018-03-17T02:46:43.196Z,7.08
2018-03-17T02:47:53.268Z,7.11
2018-03-17T02:49:03.384Z,7.13
2018-03-17T02:50:12.646Z,7.03
2018-03-17T02:51:22.468Z,7.16
2018-03-17T02:52:32.604Z,7.01
2018-03-17T02:53:42.703Z,6.98
2018-03-17T02:54:52.823Z,7.01
2018-03-17T02:56:02.628Z,6.9
2018-03-17T02:57:12.489Z,6.95
2018-03-17T02:58:22.543Z,6.91
2018-03-17T02:59:32.621Z,6.85
2018-03-17T03:00:42.425Z,6.78
2018-03-17T03:01:52.504Z,6.76
2018-03-17T03:03:02.308Z,6.85
2018-03-17T03:04:12.108Z,6.79
2018-03-17T03:05:21.914Z,6.78
2018-03-17T03:06:32.025Z,6.85
2018-03-17T03:07:42.083Z,6.83
2018-03-17T03:39:29.473Z,3.96
2018-03-17T03:40:39.519Z,3.82
2018-03-17T03:41:49.305Z,3.89
2018-03-17T03:42:59.366Z,3.9
2018-03-17T03:44:08.896Z,3.94
2018-03-17T03:45:18.158Z,4.03
2018-03-17T03:46:28.221Z,4.22
2018-03-17T03:47:38.338Z,4.15
2018-03-17T03:48:48.402Z,4.36
2018-03-17T03:49:58.453Z,4.51
2018-03-17T03:51:08.293Z,4.69
2018-03-17T03:52:18.353Z,4.76
2018-03-17T03:53:28.416Z,4.95
2018-03-17T03:54:38.260Z,5.03
2018-03-17T03:55:48.326Z,5.1
2018-03-17T03:56:58.453Z,5.15
2018-03-17T03:58:08.520Z,5.31
2018-03-17T03:59:18.835Z,5.36
2018-03-17T04:00:28.918Z,5.44
2018-03-17T04:01:38.721Z,5.52
2018-03-17T04:02:48.602Z,5.63
2018-03-17T04:03:58.403Z,5.63
2018-03-17T04:05:08.203Z,5.66
2018-03-17T04:06:18.021Z,5.67
2018-03-17T04:07:28.070Z,5.64
2018-03-17T04:08:38.170Z,5.67
2018-03-17T04:09:47.959Z,5.77
2018-03-17T04:10:58.002Z,5.8
2018-03-17T04:12:08.075Z,5.8
2018-03-17T04:13:18.153Z,5.73
2018-03-17T04:14:28.287Z,5.82
2018-03-17T04:15:37.825Z,5.81
2018-03-17T04:16:47.605Z,5.81
2018-03-17T04:17:57.653Z,5.78
2018-03-17T04:19:07.720Z,5.77
2018-03-17T04:20:17.502Z,5.77
2018-03-17T04:21:27.550Z,5.8
2018-03-17T04:22:37.613Z,5.85
2018-03-17T04:23:47.666Z,5.84
2018-03-17T04:24:57.454Z,5.87
2018-03-17T04:26:07.325Z,5.81
2018-03-17T04:27:17.370Z,5.8
2018-03-17T04:28:27.420Z,5.85
2018-03-17T04:29:37.221Z,5.82
2018-03-17T04:30:46.498Z,5.92
2018-03-17T04:31:56.615Z,5.8
2018-03-17T04:33:06.466Z,5.82
2018-03-17T04:34:16.535Z,5.85
2018-03-17T04:35:26.342Z,5.84
2018-03-17T04:36:36.405Z,5.82
2018-03-17T04:37:46.209Z,5.85
2018-03-17T04:38:56.262Z,5.8
2018-03-17T04:40:06.049Z,5.73
2018-03-17T04:41:15.860Z,5.78
2018-03-17T04:42:25.924Z,5.8
2018-03-17T04:43:36.047Z,5.82
2018-03-17T04:44:46.103Z,5.8
2018-03-17T04:45:55.909Z,5.77
2018-03-17T04:47:05.972Z,5.78
2018-03-17T04:48:15.504Z,5.81
2018-03-17T04:49:25.296Z,5.78
2018-03-17T04:50:35.349Z,5.77
2018-03-17T04:51:44.876Z,5.75
2018-03-17T04:52:54.415Z,5.78
2018-03-17T04:54:03.963Z,5.8
2018-03-17T04:55:13.815Z,5.81
2018-03-17T04:56:23.865Z,5.82
2018-03-17T04:57:33.646Z,5.84
2018-03-17T04:58:43.448Z,5.72
2018-03-17T04:59:53.235Z,5.77
2018-03-17T05:01:02.827Z,5.72
2018-03-17T05:02:12.883Z,5.73
2018-03-17T05:03:22.682Z,5.73
2018-03-17T05:04:32.757Z,5.8
2018-03-17T05:05:42.539Z,5.77
2018-03-17T05:06:52.331Z,5.69
2018-03-17T05:08:02.375Z,5.69
2018-03-17T05:09:11.952Z,5.8
2018-03-17T05:10:21.737Z,5.72
2018-03-17T05:11:31.005Z,5.78
2018-03-17T05:12:41.125Z,5.81
2018-03-17T05:13:50.392Z,5.82
2018-03-17T05:14:59.930Z,5.92
2018-03-17T05:16:09.725Z,5.96
2018-03-17T05:17:19.543Z,5.89
2018-03-17T05:18:29.599Z,5.84
2018-03-17T05:19:39.376Z,5.96
2018-03-17T05:20:48.903Z,5.84
2018-03-17T05:21:58.714Z,5.87
2018-03-17T05:23:08.777Z,5.91
2018-03-17T05:24:18.580Z,5.88
2018-03-17T05:25:28.641Z,5.87
2018-03-17T05:26:38.712Z,5.98
2018-03-17T05:27:48.247Z,6.02
2018-03-17T05:28:58.281Z,5.99
2018-03-17T05:30:07.806Z,6
2018-03-17T05:31:17.858Z,5.98
2018-03-17T05:32:27.382Z,6.06
2018-03-17T05:33:37.178Z,5.96
2018-03-17T05:34:46.441Z,5.92
2018-03-17T05:35:56.231Z,5.92
2018-03-17T05:37:05.788Z,5.78
2018-03-17T05:38:15.569Z,5.8
2018-03-17T05:39:25.363Z,5.82
2018-03-17T05:40:35.168Z,5.8
2018-03-17T05:41:44.972Z,5.77
2018-03-17T05:42:54.250Z,5.81
2018-03-17T05:44:04.047Z,5.8
2018-03-17T05:45:13.592Z,5.81
2018-03-17T05:46:23.396Z,5.84
2018-03-17T05:47:33.278Z,5.89
2018-03-17T05:48:43.070Z,5.81
2018-03-17T05:49:52.654Z,5.87
2018-03-17T05:51:02.446Z,5.91
2018-03-17T05:52:12.267Z,5.89
2018-03-17T05:53:22.413Z,5.91
2018-03-17T05:54:32.473Z,6
2018-03-17T05:55:42.535Z,6
2018-03-17T05:56:52.312Z,5.89
2018-03-17T05:58:02.116Z,5.89
2018-03-17T05:59:12.183Z,5.89
2018-03-17T06:00:21.981Z,5.99
2018-03-17T06:01:31.255Z,5.87
2018-03-17T06:02:41.070Z,5.98
2018-03-17T06:03:50.619Z,5.87
2018-03-17T06:05:00.416Z,6.02
2018-03-17T06:06:10.485Z,6.05
2018-03-17T06:07:20.537Z,5.96
2018-03-17T06:08:30.600Z,6.07
2018-03-17T06:09:40.673Z,6.2
2018-03-17T06:10:50.477Z,6.15
2018-03-17T06:12:00.285Z,6.26
2018-03-17T06:13:10.100Z,6.29
2018-03-17T06:14:19.902Z,6.28
2018-03-17T06:15:29.445Z,6.28
2018-03-17T06:16:39.291Z,6.37
2018-03-17T06:17:48.825Z,6.33
2018-03-17T06:18:58.621Z,6.39
2018-03-17T06:20:08.421Z,6.36
2018-03-17T06:21:18.210Z,6.43
2018-03-17T06:22:28.274Z,6.42
2018-03-17T06:23:38.372Z,6.52
2018-03-17T06:24:48.421Z,6.4
2018-03-17T06:25:57.995Z,6.43
2018-03-17T06:27:07.792Z,6.54
2018-03-17T06:28:17.909Z,6.44
2018-03-17T06:29:27.716Z,6.43
2018-03-17T06:30:37.774Z,6.46
2018-03-17T06:31:47.840Z,6.47
2018-03-17T06:32:57.646Z,6.46
2018-03-17T06:34:07.233Z,6.49
2018-03-17T06:35:17.298Z,6.47
2018-03-17T06:36:27.135Z,6.46
2018-03-17T06:37:36.399Z,6.44
2018-03-17T06:38:46.194Z,6.44
2018-03-17T06:39:56.325Z,6.47
2018-03-17T06:41:06.134Z,6.49
2018-03-17T06:42:16.199Z,6.49
2018-03-17T06:43:26.287Z,6.44
2018-03-17T06:44:36.472Z,6.42
2018-03-17T06:45:46.074Z,6.44
2018-03-17T06:46:56.146Z,6.49
2018-03-17T06:48:05.939Z,6.47
2018-03-17T06:49:15.728Z,6.42
2018-03-17T06:50:24.997Z,6.44
2018-03-17T06:51:35.068Z,6.49
2018-03-17T06:52:45.130Z,6.44
2018-03-17T06:53:55.183Z,6.46
2018-03-17T06:55:05.238Z,6.44
2018-03-17T06:56:15.312Z,6.51
2018-03-17T06:57:25.373Z,6.46
2018-03-17T06:58:35.435Z,6.47
2018-03-17T06:59:45.522Z,6.54
2018-03-17T07:00:55.595Z,6.54
2018-03-17T07:02:05.391Z,6.54
2018-03-17T07:03:14.947Z,6.51
2018-03-17T07:04:24.760Z,6.58
2018-03-17T07:05:34.829Z,6.57
2018-03-17T07:06:44.666Z,6.55
2018-03-17T07:07:54.724Z,6.55
2018-03-17T07:09:04.299Z,6.62
2018-03-17T07:10:14.113Z,6.67
2018-03-17T07:11:23.918Z,6.64
2018-03-17T07:12:33.708Z,6.73
2018-03-17T07:13:43.767Z,6.75
2018-03-17T07:14:53.045Z,6.72
2018-03-17T07:16:03.111Z,6.65
2018-03-17T07:17:12.931Z,6.7
2018-03-17T07:18:23.030Z,6.75
2018-03-17T07:19:33.086Z,6.72
2018-03-17T07:20:43.154Z,6.82
2018-03-17T07:21:52.958Z,6.82
2018-03-17T07:23:03.040Z,6.88
2018-03-17T07:24:13.094Z,6.93
2018-03-17T07:25:22.683Z,7
2018-03-17T07:26:32.339Z,6.97
2018-03-17T07:27:42.423Z,6.97
2018-03-17T07:28:52.779Z,6.95
2018-03-17T07:30:02.838Z,6.9
2018-03-17T07:31:12.903Z,6.9
2018-03-17T07:32:22.484Z,6.76
2018-03-17T07:33:32.568Z,6.91
2018-03-17T07:34:42.375Z,6.9
2018-03-17T07:35:52.418Z,6.98
2018-03-17T07:37:02.224Z,7.03
2018-03-17T07:38:12.422Z,6.91
2018-03-17T07:39:22.227Z,7.05
2018-03-17T07:40:32.288Z,7.09
2018-03-17T07:41:42.111Z,7.01
2018-03-17T07:42:52.241Z,7.01
2018-03-17T07:44:02.039Z,7.08
2018-03-17T07:45:12.132Z,7.05
2018-03-17T07:46:21.913Z,7.22
2018-03-17T07:47:31.728Z,7.13
2018-03-17T07:48:41.786Z,7.16
2018-03-17T07:49:51.885Z,7.16
2018-03-17T07:51:01.703Z,7.21
2018-03-17T07:52:11.515Z,7.15
2018-03-17T07:53:21.312Z,7.15
2018-03-17T07:54:31.378Z,7.16
2018-03-17T07:55:41.526Z,7.12
2018-03-17T07:56:51.593Z,6.97
2018-03-17T07:58:01.667Z,7.04
2018-03-17T07:59:11.728Z,7.08
2018-03-17T08:00:21.809Z,6.95
2018-03-17T08:01:31.978Z,6.95
2018-03-17T08:02:42.076Z,7.01
2018-03-17T08:03:52.155Z,6.97
2018-03-17T08:05:01.965Z,6.97
2018-03-17T08:06:11.224Z,6.94
2018-03-17T08:07:21.039Z,6.98
2018-03-17T08:08:31.117Z,6.98
2018-03-17T08:09:40.670Z,6.93
2018-03-17T08:10:50.490Z,6.9
2018-03-17T08:12:00.320Z,6.93
2018-03-17T08:13:10.112Z,6.85
2018-03-17T08:14:20.173Z,6.85
2018-03-17T08:15:29.988Z,6.94
2018-03-17T08:16:40.049Z,6.83
2018-03-17T08:17:50.134Z,6.8
2018-03-17T08:19:00.190Z,6.67
2018-03-17T08:20:10.242Z,6.79
2018-03-17T08:21:20.340Z,6.7
2018-03-17T08:22:30.438Z,6.76
2018-03-17T08:23:40.523Z,6.76
2018-03-17T08:24:50.647Z,6.79
2018-03-17T08:26:00.705Z,6.75
2018-03-17T08:27:10.250Z,6.67
2018-03-17T08:28:20.374Z,6.8
2018-03-17T08:29:30.198Z,6.82
2018-03-17T08:30:40.344Z,6.78
2018-03-17T08:31:49.872Z,6.79
2018-03-17T08:32:59.673Z,6.79
2018-03-17T08:34:09.000Z,6.82
2018-03-17T08:35:18.932Z,6.85
2018-03-17T08:36:28.739Z,6.82
2018-03-17T08:37:38.815Z,6.78
2018-03-17T08:38:48.887Z,6.83
2018-03-17T08:39:58.946Z,6.91
2018-03-17T08:41:09.000Z,7.01
2018-03-17T08:42:19.070Z,7.08
2018-03-17T08:43:29.137Z,7.05
2018-03-17T08:44:38.673Z,7.09
2018-03-17T08:45:48.222Z,7.05
2018-03-17T08:46:58.359Z,7.09
2018-03-17T08:48:08.151Z,7.13
2018-03-17T08:49:18.227Z,7.15
2018-03-17T08:50:28.313Z,7.18
2018-03-17T08:51:38.400Z,7.21
2018-03-17T08:52:48.459Z,7.21
2018-03-17T08:53:58.584Z,7.23
2018-03-17T08:55:08.666Z,7.33
2018-03-17T08:56:18.204Z,7.39
2018-03-17T08:57:27.725Z,7.45
2018-03-17T08:58:37.261Z,7.44
2018-03-17T08:59:47.419Z,7.48
2018-03-17T09:00:57.207Z,7.51
2018-03-17T09:02:06.737Z,7.54
2018-03-17T09:03:16.555Z,7.63
2018-03-17T09:04:26.362Z,7.59
2018-03-17T09:05:36.497Z,7.59
2018-03-17T09:06:46.294Z,7.68
2018-03-17T09:07:56.134Z,7.71
2018-03-17T09:09:06.237Z,7.8
2018-03-17T09:10:16.293Z,7.74
2018-03-17T09:11:26.345Z,7.77
2018-03-17T09:12:36.153Z,7.7
2018-03-17T09:13:46.009Z,7.68
2018-03-17T09:14:56.073Z,7.67
2018-03-17T09:16:05.878Z,7.64
2018-03-17T09:17:15.987Z,7.63
2018-03-17T09:18:26.094Z,7.63
2018-03-17T09:19:36.167Z,7.64
2018-03-17T09:20:46.242Z,7.56
2018-03-17T09:21:56.049Z,7.59
2018-03-17T09:23:05.965Z,7.58
2018-03-17T09:24:16.076Z,7.68
2018-03-17T09:25:26.026Z,7.67
2018-03-17T09:26:35.835Z,7.63
2018-03-17T09:27:45.645Z,7.67
2018-03-17T09:28:55.771Z,7.7
2018-03-17T09:30:05.634Z,7.73
2018-03-17T09:31:15.726Z,7.74
2018-03-17T09:32:25.534Z,7.73
2018-03-17T09:33:35.593Z,7.74
2018-03-17T09:34:45.549Z,7.78
2018-03-17T09:35:55.149Z,7.8
2018-03-17T09:37:04.945Z,7.85
2018-03-17T09:38:14.764Z,7.89
2018-03-17T09:39:24.332Z,7.98
2018-03-17T09:40:33.860Z,8.04
2018-03-17T09:41:43.951Z,8.1
2018-03-17T09:42:54.081Z,8.22
2018-03-17T09:44:03.635Z,8.21
2018-03-17T09:45:13.193Z,8.17
2018-03-17T09:46:22.738Z,8.17
2018-03-17T09:47:32.542Z,8.21
2018-03-17T09:48:42.667Z,8.25
2018-03-17T09:49:52.207Z,8.19
2018-03-17T09:51:01.742Z,8.11
2018-03-17T09:52:11.623Z,8.14
2018-03-17T09:53:21.174Z,8.16
2018-03-17T09:54:30.978Z,8.14
2018-03-17T09:55:40.786Z,8.13
2018-03-17T09:56:50.853Z,8.07
2018-03-17T09:58:00.932Z,8.1
2018-03-17T09:59:11.019Z,8.11
2018-03-17T10:00:20.625Z,8.17
2018-03-17T10:01:29.918Z,8.22
2018-03-17T10:02:40.005Z,8.11
2018-03-17T10:03:49.818Z,8.14
2018-03-17T10:04:59.104Z,7.98
2018-03-17T10:06:09.169Z,8.01
2018-03-17T10:07:18.701Z,7.92
2018-03-17T10:08:28.791Z,7.89
2018-03-17T10:09:38.613Z,7.96
2018-03-17T10:10:48.700Z,7.91
2018-03-17T10:11:58.553Z,7.88
2018-03-17T10:13:08.624Z,7.86
2018-03-17T10:14:18.676Z,7.8
2018-03-17T10:15:28.743Z,7.85
2018-03-17T10:16:38.814Z,7.83
2018-03-17T10:17:48.465Z,7.74
2018-03-17T10:18:57.742Z,7.71
2018-03-17T10:20:07.809Z,7.67
2018-03-17T10:21:17.872Z,7.59
2018-03-17T10:22:27.420Z,7.61
2018-03-17T10:23:36.835Z,7.59
2018-03-17T10:24:46.960Z,7.48
2018-03-17T10:25:56.778Z,7.47
2018-03-17T10:27:06.059Z,7.45
2018-03-17T10:28:15.595Z,7.37
2018-03-17T10:29:25.968Z,7.41
2018-03-17T10:30:36.070Z,7.51
2018-03-17T10:31:46.143Z,7.39
2018-03-17T10:32:56.246Z,7.49
2018-03-17T10:34:06.418Z,7.4
2018-03-17T10:35:16.087Z,7.45
2018-03-17T10:36:26.021Z,7.49
2018-03-17T10:37:35.333Z,7.37
2018-03-17T10:38:44.877Z,7.45
2018-03-17T10:39:55.039Z,7.51
2018-03-17T10:41:05.172Z,7.51
2018-03-17T10:42:15.305Z,7.4
2018-03-17T10:43:25.556Z,7.47
2018-03-17T10:44:35.649Z,7.36
2018-03-17T10:45:45.715Z,7.47
2018-03-17T10:46:55.235Z,7.67
2018-03-17T10:48:05.298Z,7.51
2018-03-17T10:49:15.110Z,7.52
2018-03-17T10:50:24.899Z,7.63
2018-03-17T10:51:34.947Z,7.58
2018-03-17T10:52:44.799Z,7.7
2018-03-17T10:53:54.612Z,7.7
2018-03-17T10:55:04.687Z,7.63
2018-03-17T10:56:14.476Z,7.61
2018-03-17T10:57:24.294Z,7.56
2018-03-17T10:58:34.157Z,7.63
2018-03-17T10:59:44.231Z,7.59
2018-03-17T11:00:53.772Z,7.64
2018-03-17T11:02:03.591Z,7.67
2018-03-17T11:03:13.647Z,7.74
2018-03-17T11:04:23.747Z,7.78
2018-03-17T11:05:33.579Z,7.8
2018-03-17T11:06:43.118Z,7.96
2018-03-17T11:07:53.182Z,7.91
2018-03-17T11:09:02.983Z,7.95
2018-03-17T11:10:12.778Z,8.01
2018-03-17T11:11:22.847Z,8.07
2018-03-17T11:12:32.374Z,8.07
2018-03-17T11:13:42.172Z,8.04
2018-03-17T11:14:52.008Z,8.07
2018-03-17T11:16:01.613Z,8.01
2018-03-17T11:17:11.661Z,8.04
2018-03-17T11:18:21.837Z,8.06
2018-03-17T11:19:31.924Z,8.01
2018-03-17T11:20:41.988Z,8.04
2018-03-17T11:21:52.103Z,8.04
2018-03-17T11:23:02.457Z,8.11
2018-03-17T11:24:12.662Z,8.13
2018-03-17T11:25:22.460Z,8.14
2018-03-17T11:26:32.511Z,8.21
2018-03-17T11:27:42.575Z,8.14
2018-03-17T11:28:52.115Z,8.31
2018-03-17T11:30:02.175Z,8.31
2018-03-17T11:31:12.256Z,8.29
2018-03-17T11:32:22.499Z,8.21
2018-03-17T11:33:32.416Z,8.14
2018-03-17T11:34:42.497Z,8.14
2018-03-17T11:35:52.572Z,8.07
2018-03-17T11:37:02.657Z,7.92
2018-03-17T11:38:12.462Z,7.95
2018-03-17T11:39:22.579Z,7.96
2018-03-17T11:40:32.641Z,7.99
2018-03-17T11:41:42.697Z,7.91
2018-03-17T11:42:52.765Z,7.88
2018-03-17T11:44:02.571Z,7.93
2018-03-17T11:45:12.636Z,7.93
2018-03-17T11:46:22.697Z,7.86
2018-03-17T11:47:32.760Z,7.91
2018-03-17T11:48:42.845Z,7.92
2018-03-17T11:49:52.965Z,7.89
2018-03-17T11:51:02.835Z,7.98
2018-03-17T11:52:12.919Z,7.91
2018-03-17T11:53:22.481Z,7.98
2018-03-17T11:54:32.289Z,8.06
2018-03-17T11:55:42.120Z,7.95
2018-03-17T11:56:52.189Z,7.92
2018-03-17T11:58:01.984Z,7.75
2018-03-17T11:59:11.783Z,7.75
2018-03-17T12:00:21.321Z,7.67
2018-03-17T12:01:31.134Z,7.71
2018-03-17T12:02:40.931Z,7.74
2018-03-17T12:03:50.732Z,7.93
2018-03-17T12:05:00.813Z,7.92
2018-03-17T12:06:10.902Z,7.92
2018-03-17T12:07:21.048Z,7.91
2018-03-17T12:08:31.151Z,7.82
2018-03-17T12:09:40.953Z,7.91
2018-03-17T12:10:51.025Z,7.77
2018-03-17T12:12:01.087Z,7.73
2018-03-17T12:13:10.899Z,7.74
2018-03-17T12:14:20.702Z,7.7
2018-03-17T12:15:30.002Z,7.64
2018-03-17T12:16:39.820Z,7.37
2018-03-17T12:17:49.618Z,7.23
2018-03-17T12:18:59.215Z,7.12
2018-03-17T12:20:08.515Z,6.97
2018-03-17T12:21:18.331Z,6.83
2018-03-17T12:22:28.514Z,6.7
2018-03-17T12:23:38.060Z,6.7
2018-03-17T12:24:48.027Z,6.78
2018-03-17T12:25:58.090Z,6.76
2018-03-17T12:27:07.890Z,6.7
2018-03-17T12:28:17.708Z,6.51
2018-03-17T12:29:27.550Z,6.57
2018-03-17T12:30:37.411Z,6.55
2018-03-17T12:31:47.482Z,6.49
2018-03-17T12:32:57.537Z,6.44
2018-03-17T12:34:07.616Z,6.43
2018-03-17T12:35:17.432Z,6.43
2018-03-17T12:36:27.280Z,6.37
2018-03-17T12:37:37.122Z,6.29
2018-03-17T12:38:46.683Z,6.39
2018-03-17T12:39:56.520Z,6.25
2018-03-17T12:41:06.581Z,6.26
2018-03-17T12:42:16.666Z,6.18
2018-03-17T12:43:26.770Z,6.07
2018-03-17T12:44:36.321Z,6
2018-03-17T12:45:46.404Z,6.05
2018-03-17T12:46:56.476Z,6.1
2018-03-17T12:48:06.300Z,6.33
2018-03-17T12:49:15.856Z,6.29
2018-03-17T12:50:25.417Z,6.21
2018-03-17T12:51:35.492Z,6.14
2018-03-17T12:52:45.562Z,6.1
2018-03-17T12:53:55.438Z,6.05
2018-03-17T12:55:05.495Z,5.88
2018-03-17T12:56:15.052Z,5.95
2018-03-17T12:57:25.148Z,5.87
2018-03-17T12:58:34.708Z,5.91
2018-03-17T12:59:44.854Z,5.99
2018-03-17T13:00:54.667Z,6.14
2018-03-17T13:02:04.741Z,6.29
2018-03-17T13:03:14.825Z,6.34
2018-03-17T13:04:24.910Z,6.46
2018-03-17T13:05:34.786Z,6.57
2018-03-17T13:06:44.327Z,6.73
2018-03-17T13:07:54.451Z,6.8
2018-03-17T13:09:04.283Z,6.73
2018-03-17T13:10:14.087Z,6.64
2018-03-17T13:11:23.964Z,6.55
2018-03-17T13:12:34.035Z,6.4
2018-03-17T13:13:43.868Z,6.36
2018-03-17T13:14:53.953Z,6.49
2018-03-17T13:16:03.759Z,6.4
2018-03-17T13:17:13.882Z,6.52
2018-03-17T13:18:23.711Z,6.29
2018-03-17T13:19:33.022Z,6.25
2018-03-17T13:20:43.104Z,6.13
2018-03-17T13:21:52.995Z,6
2018-03-17T13:23:02.852Z,6.05
2018-03-17T13:24:12.417Z,5.99
2018-03-17T13:25:22.543Z,5.84
2018-03-17T13:26:32.601Z,5.81
2018-03-17T13:27:42.667Z,5.73
2018-03-17T13:28:52.779Z,5.77
2018-03-17T13:30:02.649Z,5.8
2018-03-17T13:31:12.491Z,5.8
2018-03-17T13:32:22.363Z,5.81
2018-03-17T13:33:32.245Z,5.77
2018-03-17T13:34:42.393Z,5.81
2018-03-17T13:35:52.192Z,5.84
2018-03-17T13:37:02.272Z,5.78
2018-03-17T13:38:12.371Z,5.67
2018-03-17T13:39:22.471Z,5.69
2018-03-17T13:40:32.652Z,5.63
2018-03-17T13:41:42.474Z,5.63
2018-03-17T13:42:52.060Z,5.66
2018-03-17T13:44:01.900Z,5.59
2018-03-17T13:45:12.079Z,5.6
2018-03-17T13:46:21.905Z,5.69
2018-03-17T13:47:32.143Z,5.73
2018-03-17T13:48:42.208Z,5.73
2018-03-17T13:49:52.261Z,5.52
2018-03-17T13:51:01.546Z,5.64
2018-03-17T13:52:11.658Z,5.46
2018-03-17T13:53:21.487Z,5.51
2018-03-17T13:54:31.632Z,5.45
2018-03-17T13:55:41.478Z,5.39
2018-03-17T13:56:51.039Z,5.37
2018-03-17T13:58:00.857Z,5.41
2018-03-17T13:59:10.939Z,5.41
2018-03-17T14:00:21.020Z,5.31
2018-03-17T14:01:31.111Z,5.31
2018-03-17T14:02:41.200Z,5.27
2018-03-17T14:03:51.350Z,5.23
2018-03-17T14:05:01.147Z,5.13
2018-03-17T14:06:11.296Z,5.23
2018-03-17T14:07:21.111Z,5.2
2018-03-17T14:08:31.193Z,5.08
2018-03-17T14:09:41.069Z,5.21
2018-03-17T14:10:51.190Z,5.13
2018-03-17T14:12:01.003Z,5.15
2018-03-17T14:13:10.826Z,4.98
2018-03-17T14:14:20.673Z,5.03
2018-03-17T14:15:30.524Z,4.97
2018-03-17T14:16:40.320Z,4.94
2018-03-17T14:17:50.391Z,5.06
2018-03-17T14:19:00.454Z,4.97
2018-03-17T14:20:10.300Z,4.88
2018-03-17T14:21:20.152Z,4.79
2018-03-17T14:22:29.953Z,4.78
2018-03-17T14:23:40.049Z,4.66
2018-03-17T14:24:49.970Z,4.71
2018-03-17T14:25:59.243Z,4.61
2018-03-17T14:27:09.099Z,4.58
2018-03-17T14:28:19.190Z,4.56
2018-03-17T14:29:29.282Z,4.51
2018-03-17T14:30:39.376Z,4.58
2018-03-17T14:31:49.209Z,4.46
2018-03-17T14:32:58.753Z,4.57
2018-03-17T14:34:08.848Z,4.56
2018-03-17T14:35:18.940Z,4.71
2018-03-17T14:36:29.041Z,4.65
2018-03-17T14:37:38.844Z,4.69
2018-03-17T14:38:48.414Z,4.69
2018-03-17T14:39:58.498Z,4.69
2018-03-17T14:41:08.629Z,4.71
2018-03-17T14:42:18.733Z,4.71
2018-03-17T14:43:28.825Z,4.71
2018-03-17T14:44:38.660Z,4.74
2018-03-17T14:45:48.734Z,4.74
2018-03-17T14:46:58.867Z,4.74
2018-03-17T14:48:08.422Z,4.57
2018-03-17T14:49:18.518Z,4.6
2018-03-17T14:50:28.320Z,4.51
2018-03-17T14:51:38.406Z,4.36
2018-03-17T14:52:48.253Z,4.32
2018-03-17T14:53:58.075Z,4.29
2018-03-17T14:55:07.910Z,4.11
2018-03-17T14:56:17.971Z,4.2
2018-03-17T14:57:28.062Z,4.33
2018-03-17T14:58:37.873Z,4.2
2018-03-17T14:59:47.408Z,4.28
2018-03-17T15:00:57.208Z,4.35
2018-03-17T15:02:07.284Z,4.29
2018-03-17T15:03:17.115Z,4.36
2018-03-17T15:04:27.235Z,4.35
2018-03-17T15:05:37.306Z,4.29
2018-03-17T15:06:46.860Z,4.24
2018-03-17T15:07:56.705Z,4.3
2018-03-17T15:09:06.567Z,4.29
2018-03-17T15:10:16.395Z,4.29
2018-03-17T15:11:26.272Z,4.35
2018-03-17T15:12:36.368Z,4.33
2018-03-17T15:13:45.915Z,4.35
2018-03-17T15:14:56.003Z,4.4
2018-03-17T15:16:06.143Z,4.36
2018-03-17T15:17:15.958Z,4.32
2018-03-17T15:18:25.779Z,4.32
2018-03-17T15:19:35.887Z,4.28
2018-03-17T15:20:46.006Z,4.35
2018-03-17T15:21:55.924Z,4.17
2018-03-17T15:23:05.758Z,4.1
2018-03-17T15:24:15.837Z,4.21
2018-03-17T15:25:25.685Z,4.3
2018-03-17T15:26:35.758Z,4.29
2018-03-17T15:27:45.857Z,4.12
2018-03-17T15:28:55.945Z,4.17
2018-03-17T15:30:05.772Z,4.14
2018-03-17T15:31:15.859Z,4.1
2018-03-17T15:32:25.939Z,4.1
2018-03-17T15:33:36.091Z,4.03
2018-03-17T15:34:46.182Z,4.04
2018-03-17T15:35:56.048Z,3.97
2018-03-17T15:37:05.646Z,3.94
2018-03-17T15:38:15.458Z,3.97
2018-03-17T15:39:25.158Z,3.97
2018-03-17T15:40:35.242Z,3.97
2018-03-17T15:41:45.068Z,4.03
2018-03-17T15:42:55.216Z,4
2018-03-17T15:44:05.316Z,4.08
2018-03-17T15:45:15.120Z,4.03
2018-03-17T15:46:25.205Z,3.99
2018-03-17T15:47:34.768Z,3.79
2018-03-17T15:48:44.334Z,3.82
2018-03-17T15:49:54.160Z,3.92
2018-03-17T15:51:03.772Z,3.84
2018-03-17T15:52:13.597Z,3.9
2018-03-17T15:53:23.547Z,3.79
2018-03-17T15:54:33.469Z,3.81
2018-03-17T15:55:43.562Z,3.78
2018-03-17T15:56:53.738Z,3.72
2018-03-17T15:58:03.827Z,3.76
2018-03-17T15:59:13.946Z,3.71
2018-03-17T16:00:24.032Z,3.69
2018-03-17T16:01:34.114Z,3.86
2018-03-17T16:02:44.227Z,3.85
2018-03-17T16:03:54.312Z,3.86